sensor_id;sensor_type;location;lat;lon;timestamp;P1;durP1;ratioP1;P2;durP2;ratioP2
7426;SDS011;3755;59.316;18.092;2022-12-16T00:02:28;5.80;;;3.63;;
7426;SDS011;3755;59.316;18.092;2022-12-16T00:05:01;7.63;;;4.03;;
7426;SDS011;3755;59.316;18.092;2022-12-16T00:07:32;5.33;;;3.47;;
7426;SDS011;3755;59.316;18.092;2022-12-16T00:10:03;7.33;;;3.87;;
7426;SDS011;3755;59.316;18.092;2022-12-16T00:12:32;8.13;;;3.43;;
7426;SDS011;3755;59.316;18.092;2022-12-16T00:15:05;5.10;;;3.40;;
7426;SDS011;3755;59.316;18.092;2022-12-16T00:17:38;7.37;;;3.70;;
7426;SDS011;3755;59.316;18.092;2022-12-16T00:20:07;6.70;;;3.80;;
7426;SDS011;3755;59.316;18.092;2022-12-16T00:22:50;7.17;;;3.80;;
7426;SDS011;3755;59.316;18.092;2022-12-16T00:25:18;6.90;;;3.50;;
7426;SDS011;3755;59.316;18.092;2022-12-16T00:27:51;7.77;;;3.27;;
7426;SDS011;3755;59.316;18.092;2022-12-16T00:30:33;8.10;;;3.87;;
7426;SDS011;3755;59.316;18.092;2022-12-16T00:33:03;9.33;;;3.93;;
7426;SDS011;3755;59.316;18.092;2022-12-16T00:35:38;7.43;;;3.07;;
7426;SDS011;3755;59.316;18.092;2022-12-16T00:38:06;5.90;;;3.50;;
7426;SDS011;3755;59.316;18.092;2022-12-16T00:40:39;6.93;;;3.47;;
7426;SDS011;3755;59.316;18.092;2022-12-16T00:43:20;6.97;;;3.40;;
7426;SDS011;3755;59.316;18.092;2022-12-16T00:45:51;5.77;;;3.10;;
7426;SDS011;3755;59.316;18.092;2022-12-16T00:48:31;8.47;;;3.47;;
7426;SDS011;3755;59.316;18.092;2022-12-16T00:51:13;7.43;;;3.73;;
7426;SDS011;3755;59.316;18.092;2022-12-16T00:53:54;3.83;;;1.90;;
7426;SDS011;3755;59.316;18.092;2022-12-16T00:56:23;9.53;;;3.53;;
7426;SDS011;3755;59.316;18.092;2022-12-16T00:58:56;8.23;;;4.10;;
7426;SDS011;3755;59.316;18.092;2022-12-16T01:01:29;9.80;;;4.57;;
7426;SDS011;3755;59.316;18.092;2022-12-16T01:04:16;9.80;;;4.67;;
7426;SDS011;3755;59.316;18.092;2022-12-16T01:06:46;10.73;;;5.20;;
7426;SDS011;3755;59.316;18.092;2022-12-16T01:09:13;8.80;;;4.97;;
7426;SDS011;3755;59.316;18.092;2022-12-16T01:11:42;7.20;;;4.27;;
7426;SDS011;3755;59.316;18.092;2022-12-16T01:14:10;9.57;;;4.33;;
7426;SDS011;3755;59.316;18.092;2022-12-16T01:16:41;10.07;;;4.83;;
7426;SDS011;3755;59.316;18.092;2022-12-16T01:19:32;6.73;;;3.43;;
7426;SDS011;3755;59.316;18.092;2022-12-16T01:22:03;9.10;;;3.93;;
7426;SDS011;3755;59.316;18.092;2022-12-16T01:24:30;5.07;;;2.50;;
7426;SDS011;3755;59.316;18.092;2022-12-16T01:27:03;4.00;;;2.53;;
7426;SDS011;3755;59.316;18.092;2022-12-16T01:29:32;10.17;;;5.20;;
7426;SDS011;3755;59.316;18.092;2022-12-16T01:31:59;9.43;;;5.13;;
7426;SDS011;3755;59.316;18.092;2022-12-16T01:34:29;9.70;;;5.23;;
7426;SDS011;3755;59.316;18.092;2022-12-16T01:37:14;6.40;;;3.90;;
7426;SDS011;3755;59.316;18.092;2022-12-16T01:39:47;6.67;;;4.00;;
7426;SDS011;3755;59.316;18.092;2022-12-16T01:42:15;5.77;;;3.90;;
7426;SDS011;3755;59.316;18.092;2022-12-16T01:44:44;3.93;;;2.10;;
7426;SDS011;3755;59.316;18.092;2022-12-16T01:47:43;3.03;;;2.30;;
7426;SDS011;3755;59.316;18.092;2022-12-16T01:50:15;5.73;;;3.60;;
7426;SDS011;3755;59.316;18.092;2022-12-16T01:52:46;7.40;;;4.20;;
7426;SDS011;3755;59.316;18.092;2022-12-16T01:55:20;2.80;;;2.13;;
7426;SDS011;3755;59.316;18.092;2022-12-16T01:57:52;6.03;;;3.30;;
7426;SDS011;3755;59.316;18.092;2022-12-16T02:00:26;6.37;;;3.90;;
7426;SDS011;3755;59.316;18.092;2022-12-16T02:02:54;6.03;;;3.37;;
7426;SDS011;3755;59.316;18.092;2022-12-16T02:05:24;4.30;;;2.73;;
7426;SDS011;3755;59.316;18.092;2022-12-16T02:07:58;10.10;;;4.40;;
7426;SDS011;3755;59.316;18.092;2022-12-16T02:10:37;4.60;;;2.70;;
7426;SDS011;3755;59.316;18.092;2022-12-16T02:13:16;6.47;;;3.93;;
7426;SDS011;3755;59.316;18.092;2022-12-16T02:16:20;7.80;;;3.47;;
7426;SDS011;3755;59.316;18.092;2022-12-16T02:19:29;9.57;;;4.87;;
7426;SDS011;3755;59.316;18.092;2022-12-16T02:22:32;7.40;;;4.27;;
7426;SDS011;3755;59.316;18.092;2022-12-16T02:28:17;6.03;;;3.83;;
7426;SDS011;3755;59.316;18.092;2022-12-16T02:31:03;6.70;;;4.37;;
7426;SDS011;3755;59.316;18.092;2022-12-16T02:33:54;6.00;;;4.00;;
7426;SDS011;3755;59.316;18.092;2022-12-16T02:36:50;5.70;;;3.60;;
7426;SDS011;3755;59.316;18.092;2022-12-16T02:39:32;6.43;;;4.07;;
7426;SDS011;3755;59.316;18.092;2022-12-16T02:42:08;8.23;;;4.33;;
7426;SDS011;3755;59.316;18.092;2022-12-16T02:44:43;6.97;;;4.70;;
7426;SDS011;3755;59.316;18.092;2022-12-16T02:47:18;8.57;;;5.23;;
7426;SDS011;3755;59.316;18.092;2022-12-16T02:49:48;6.43;;;3.73;;
7426;SDS011;3755;59.316;18.092;2022-12-16T02:52:17;6.30;;;4.00;;
7426;SDS011;3755;59.316;18.092;2022-12-16T02:54:47;8.53;;;5.10;;
7426;SDS011;3755;59.316;18.092;2022-12-16T02:57:22;2.67;;;2.43;;
7426;SDS011;3755;59.316;18.092;2022-12-16T03:00:09;6.13;;;3.97;;
7426;SDS011;3755;59.316;18.092;2022-12-16T03:02:44;4.47;;;2.93;;
7426;SDS011;3755;59.316;18.092;2022-12-16T03:05:19;9.07;;;5.33;;
7426;SDS011;3755;59.316;18.092;2022-12-16T03:07:50;6.77;;;3.57;;
7426;SDS011;3755;59.316;18.092;2022-12-16T03:10:20;6.77;;;4.57;;
7426;SDS011;3755;59.316;18.092;2022-12-16T03:12:52;2.83;;;2.43;;
7426;SDS011;3755;59.316;18.092;2022-12-16T03:15:22;6.77;;;4.17;;
7426;SDS011;3755;59.316;18.092;2022-12-16T03:17:53;9.17;;;5.30;;
7426;SDS011;3755;59.316;18.092;2022-12-16T03:20:23;6.77;;;4.57;;
7426;SDS011;3755;59.316;18.092;2022-12-16T03:22:56;6.63;;;3.47;;
7426;SDS011;3755;59.316;18.092;2022-12-16T03:25:27;6.20;;;3.43;;
7426;SDS011;3755;59.316;18.092;2022-12-16T03:27:58;6.23;;;3.80;;
7426;SDS011;3755;59.316;18.092;2022-12-16T03:30:33;8.27;;;4.03;;
7426;SDS011;3755;59.316;18.092;2022-12-16T03:33:06;9.53;;;4.43;;
7426;SDS011;3755;59.316;18.092;2022-12-16T03:35:38;7.60;;;5.03;;
7426;SDS011;3755;59.316;18.092;2022-12-16T03:38:10;7.03;;;4.00;;
7426;SDS011;3755;59.316;18.092;2022-12-16T03:40:41;6.20;;;3.53;;
7426;SDS011;3755;59.316;18.092;2022-12-16T03:43:10;6.73;;;4.27;;
7426;SDS011;3755;59.316;18.092;2022-12-16T03:45:40;6.70;;;3.97;;
7426;SDS011;3755;59.316;18.092;2022-12-16T03:48:13;11.17;;;5.57;;
7426;SDS011;3755;59.316;18.092;2022-12-16T03:50:44;8.60;;;5.33;;
7426;SDS011;3755;59.316;18.092;2022-12-16T03:53:13;9.03;;;4.07;;
7426;SDS011;3755;59.316;18.092;2022-12-16T03:55:40;8.83;;;5.23;;
7426;SDS011;3755;59.316;18.092;2022-12-16T03:58:09;7.27;;;3.83;;
7426;SDS011;3755;59.316;18.092;2022-12-16T04:00:36;6.17;;;4.00;;
7426;SDS011;3755;59.316;18.092;2022-12-16T04:03:03;6.17;;;3.43;;
7426;SDS011;3755;59.316;18.092;2022-12-16T04:05:33;5.37;;;3.07;;
7426;SDS011;3755;59.316;18.092;2022-12-16T04:08:00;6.50;;;4.27;;
7426;SDS011;3755;59.316;18.092;2022-12-16T04:10:29;4.40;;;3.33;;
7426;SDS011;3755;59.316;18.092;2022-12-16T04:13:14;6.70;;;3.63;;
7426;SDS011;3755;59.316;18.092;2022-12-16T04:15:58;8.80;;;4.33;;
7426;SDS011;3755;59.316;18.092;2022-12-16T04:18:45;5.47;;;2.97;;
7426;SDS011;3755;59.316;18.092;2022-12-16T04:21:32;3.73;;;2.47;;
7426;SDS011;3755;59.316;18.092;2022-12-16T04:24:17;4.37;;;2.87;;
7426;SDS011;3755;59.316;18.092;2022-12-16T04:26:49;5.13;;;3.80;;
7426;SDS011;3755;59.316;18.092;2022-12-16T04:29:34;10.00;;;4.47;;
7426;SDS011;3755;59.316;18.092;2022-12-16T04:32:22;10.10;;;5.53;;
7426;SDS011;3755;59.316;18.092;2022-12-16T04:34:49;4.30;;;3.20;;
7426;SDS011;3755;59.316;18.092;2022-12-16T04:37:17;4.13;;;2.70;;
7426;SDS011;3755;59.316;18.092;2022-12-16T04:40:02;6.10;;;3.27;;
7426;SDS011;3755;59.316;18.092;2022-12-16T04:42:47;8.00;;;3.40;;
7426;SDS011;3755;59.316;18.092;2022-12-16T04:45:31;2.83;;;1.93;;
7426;SDS011;3755;59.316;18.092;2022-12-16T04:48:20;11.50;;;5.97;;
7426;SDS011;3755;59.316;18.092;2022-12-16T04:51:05;7.27;;;4.90;;
7426;SDS011;3755;59.316;18.092;2022-12-16T04:54:03;4.90;;;3.27;;
7426;SDS011;3755;59.316;18.092;2022-12-16T04:56:51;8.90;;;4.83;;
7426;SDS011;3755;59.316;18.092;2022-12-16T04:59:38;6.13;;;2.67;;
7426;SDS011;3755;59.316;18.092;2022-12-16T05:02:37;11.40;;;5.23;;
7426;SDS011;3755;59.316;18.092;2022-12-16T05:05:22;8.63;;;4.77;;
7426;SDS011;3755;59.316;18.092;2022-12-16T05:08:08;12.17;;;5.40;;
7426;SDS011;3755;59.316;18.092;2022-12-16T05:10:54;11.70;;;5.30;;
7426;SDS011;3755;59.316;18.092;2022-12-16T05:13:38;14.83;;;5.93;;
7426;SDS011;3755;59.316;18.092;2022-12-16T05:16:22;7.20;;;4.23;;
7426;SDS011;3755;59.316;18.092;2022-12-16T05:19:07;9.03;;;4.13;;
7426;SDS011;3755;59.316;18.092;2022-12-16T05:21:51;8.23;;;4.57;;
7426;SDS011;3755;59.316;18.092;2022-12-16T05:24:36;8.13;;;3.60;;
7426;SDS011;3755;59.316;18.092;2022-12-16T05:27:23;6.57;;;3.20;;
7426;SDS011;3755;59.316;18.092;2022-12-16T05:30:09;7.37;;;4.33;;
7426;SDS011;3755;59.316;18.092;2022-12-16T05:32:54;8.87;;;3.97;;
7426;SDS011;3755;59.316;18.092;2022-12-16T05:35:38;8.67;;;3.60;;
7426;SDS011;3755;59.316;18.092;2022-12-16T05:38:22;12.17;;;5.43;;
7426;SDS011;3755;59.316;18.092;2022-12-16T05:41:19;4.87;;;2.13;;
7426;SDS011;3755;59.316;18.092;2022-12-16T05:44:05;3.40;;;2.37;;
7426;SDS011;3755;59.316;18.092;2022-12-16T05:46:49;8.23;;;4.83;;
7426;SDS011;3755;59.316;18.092;2022-12-16T05:49:35;10.47;;;4.87;;
7426;SDS011;3755;59.316;18.092;2022-12-16T05:52:19;9.53;;;4.87;;
7426;SDS011;3755;59.316;18.092;2022-12-16T05:55:04;5.50;;;3.53;;
7426;SDS011;3755;59.316;18.092;2022-12-16T05:57:49;4.47;;;2.50;;
7426;SDS011;3755;59.316;18.092;2022-12-16T06:00:40;6.73;;;3.37;;
7426;SDS011;3755;59.316;18.092;2022-12-16T06:03:25;9.93;;;4.63;;
7426;SDS011;3755;59.316;18.092;2022-12-16T06:06:09;6.70;;;4.10;;
7426;SDS011;3755;59.316;18.092;2022-12-16T06:08:55;13.07;;;5.60;;
7426;SDS011;3755;59.316;18.092;2022-12-16T06:11:40;8.80;;;5.03;;
7426;SDS011;3755;59.316;18.092;2022-12-16T06:14:25;6.93;;;4.47;;
7426;SDS011;3755;59.316;18.092;2022-12-16T06:17:17;7.63;;;4.20;;
7426;SDS011;3755;59.316;18.092;2022-12-16T06:20:02;8.53;;;4.07;;
7426;SDS011;3755;59.316;18.092;2022-12-16T06:22:49;5.87;;;3.90;;
7426;SDS011;3755;59.316;18.092;2022-12-16T06:25:36;7.67;;;4.43;;
7426;SDS011;3755;59.316;18.092;2022-12-16T06:28:21;9.97;;;5.70;;
7426;SDS011;3755;59.316;18.092;2022-12-16T06:31:05;10.03;;;5.53;;
7426;SDS011;3755;59.316;18.092;2022-12-16T06:33:53;6.47;;;4.23;;
7426;SDS011;3755;59.316;18.092;2022-12-16T06:36:40;11.63;;;5.73;;
7426;SDS011;3755;59.316;18.092;2022-12-16T06:39:29;2.33;;;1.53;;
7426;SDS011;3755;59.316;18.092;2022-12-16T06:42:14;7.53;;;3.97;;
7426;SDS011;3755;59.316;18.092;2022-12-16T06:44:58;9.90;;;4.67;;
7426;SDS011;3755;59.316;18.092;2022-12-16T06:47:43;10.27;;;5.10;;
7426;SDS011;3755;59.316;18.092;2022-12-16T06:57:09;9.33;;;4.90;;
7426;SDS011;3755;59.316;18.092;2022-12-16T06:59:54;11.60;;;5.10;;
7426;SDS011;3755;59.316;18.092;2022-12-16T07:02:41;7.67;;;4.17;;
7426;SDS011;3755;59.316;18.092;2022-12-16T07:05:43;7.13;;;3.77;;
7426;SDS011;3755;59.316;18.092;2022-12-16T07:08:56;8.57;;;4.63;;
7426;SDS011;3755;59.316;18.092;2022-12-16T07:11:42;11.57;;;6.67;;
7426;SDS011;3755;59.316;18.092;2022-12-16T07:14:27;10.30;;;5.13;;
7426;SDS011;3755;59.316;18.092;2022-12-16T07:17:12;8.53;;;5.10;;
7426;SDS011;3755;59.316;18.092;2022-12-16T07:19:56;9.33;;;4.73;;
7426;SDS011;3755;59.316;18.092;2022-12-16T07:22:41;8.67;;;4.57;;
7426;SDS011;3755;59.316;18.092;2022-12-16T07:28:48;6.73;;;4.63;;
7426;SDS011;3755;59.316;18.092;2022-12-16T07:31:45;11.17;;;5.00;;
7426;SDS011;3755;59.316;18.092;2022-12-16T07:34:31;7.33;;;3.83;;
7426;SDS011;3755;59.316;18.092;2022-12-16T07:37:37;7.07;;;4.13;;
7426;SDS011;3755;59.316;18.092;2022-12-16T07:43:41;7.97;;;4.77;;
7426;SDS011;3755;59.316;18.092;2022-12-16T07:50:11;8.17;;;4.30;;
7426;SDS011;3755;59.316;18.092;2022-12-16T07:52:56;7.87;;;5.03;;
7426;SDS011;3755;59.316;18.092;2022-12-16T07:55:47;9.50;;;4.47;;
7426;SDS011;3755;59.316;18.092;2022-12-16T07:58:32;7.00;;;4.47;;
7426;SDS011;3755;59.316;18.092;2022-12-16T08:01:22;9.93;;;4.50;;
7426;SDS011;3755;59.316;18.092;2022-12-16T08:04:10;7.00;;;4.50;;
7426;SDS011;3755;59.316;18.092;2022-12-16T08:06:58;6.67;;;3.90;;
7426;SDS011;3755;59.316;18.092;2022-12-16T08:09:52;8.10;;;6.47;;
7426;SDS011;3755;59.316;18.092;2022-12-16T08:12:39;5.47;;;2.50;;
7426;SDS011;3755;59.316;18.092;2022-12-16T08:15:25;7.30;;;4.70;;
7426;SDS011;3755;59.316;18.092;2022-12-16T08:18:10;5.40;;;3.17;;
7426;SDS011;3755;59.316;18.092;2022-12-16T08:20:55;6.37;;;3.33;;
7426;SDS011;3755;59.316;18.092;2022-12-16T08:23:51;5.70;;;3.57;;
7426;SDS011;3755;59.316;18.092;2022-12-16T08:26:51;6.33;;;4.17;;
7426;SDS011;3755;59.316;18.092;2022-12-16T08:29:39;8.07;;;4.07;;
7426;SDS011;3755;59.316;18.092;2022-12-16T08:32:26;10.10;;;4.47;;
7426;SDS011;3755;59.316;18.092;2022-12-16T08:35:30;5.50;;;3.63;;
7426;SDS011;3755;59.316;18.092;2022-12-16T08:38:15;12.13;;;5.43;;
7426;SDS011;3755;59.316;18.092;2022-12-16T08:44:25;11.13;;;5.13;;
7426;SDS011;3755;59.316;18.092;2022-12-16T08:47:10;8.30;;;4.93;;
7426;SDS011;3755;59.316;18.092;2022-12-16T08:49:56;5.37;;;3.97;;
7426;SDS011;3755;59.316;18.092;2022-12-16T08:52:58;7.23;;;4.37;;
7426;SDS011;3755;59.316;18.092;2022-12-16T08:55:45;7.80;;;3.80;;
7426;SDS011;3755;59.316;18.092;2022-12-16T08:58:31;5.80;;;3.03;;
7426;SDS011;3755;59.316;18.092;2022-12-16T09:01:46;6.27;;;3.70;;
7426;SDS011;3755;59.316;18.092;2022-12-16T09:04:45;6.20;;;3.17;;
7426;SDS011;3755;59.316;18.092;2022-12-16T09:07:36;7.23;;;3.90;;
7426;SDS011;3755;59.316;18.092;2022-12-16T09:10:43;6.53;;;3.80;;
7426;SDS011;3755;59.316;18.092;2022-12-16T09:13:28;5.30;;;3.93;;
7426;SDS011;3755;59.316;18.092;2022-12-16T09:26:29;7.93;;;4.80;;
7426;SDS011;3755;59.316;18.092;2022-12-16T09:29:37;6.13;;;4.20;;
7426;SDS011;3755;59.316;18.092;2022-12-16T09:32:22;6.83;;;4.80;;
7426;SDS011;3755;59.316;18.092;2022-12-16T09:35:08;7.33;;;5.40;;
7426;SDS011;3755;59.316;18.092;2022-12-16T09:38:01;7.93;;;4.57;;
7426;SDS011;3755;59.316;18.092;2022-12-16T09:40:46;5.33;;;3.53;;
7426;SDS011;3755;59.316;18.092;2022-12-16T09:43:45;5.97;;;4.23;;
7426;SDS011;3755;59.316;18.092;2022-12-16T09:46:48;3.40;;;2.67;;
7426;SDS011;3755;59.316;18.092;2022-12-16T09:49:44;3.77;;;2.47;;
7426;SDS011;3755;59.316;18.092;2022-12-16T09:52:31;6.70;;;4.13;;
7426;SDS011;3755;59.316;18.092;2022-12-16T09:55:23;2.80;;;2.60;;
7426;SDS011;3755;59.316;18.092;2022-12-16T09:58:31;11.37;;;3.93;;
7426;SDS011;3755;59.316;18.092;2022-12-16T10:01:21;8.47;;;5.13;;
7426;SDS011;3755;59.316;18.092;2022-12-16T10:04:08;6.33;;;4.17;;
7426;SDS011;3755;59.316;18.092;2022-12-16T10:06:50;7.87;;;4.60;;
7426;SDS011;3755;59.316;18.092;2022-12-16T10:09:53;6.80;;;4.77;;
7426;SDS011;3755;59.316;18.092;2022-12-16T10:12:47;9.07;;;4.70;;
7426;SDS011;3755;59.316;18.092;2022-12-16T10:15:47;7.77;;;4.67;;
7426;SDS011;3755;59.316;18.092;2022-12-16T10:21:58;8.60;;;4.90;;
7426;SDS011;3755;59.316;18.092;2022-12-16T10:24:48;8.90;;;5.53;;
7426;SDS011;3755;59.316;18.092;2022-12-16T10:27:41;9.90;;;5.40;;
7426;SDS011;3755;59.316;18.092;2022-12-16T10:33:55;13.00;;;6.13;;
7426;SDS011;3755;59.316;18.092;2022-12-16T10:36:40;12.53;;;6.27;;
7426;SDS011;3755;59.316;18.092;2022-12-16T10:46:03;12.30;;;5.53;;
7426;SDS011;3755;59.316;18.092;2022-12-16T10:48:55;8.67;;;4.73;;
7426;SDS011;3755;59.316;18.092;2022-12-16T10:55:06;10.27;;;4.73;;
7426;SDS011;3755;59.316;18.092;2022-12-16T10:58:23;9.03;;;6.13;;
7426;SDS011;3755;59.316;18.092;2022-12-16T11:33:59;12.30;;;6.20;;
7426;SDS011;3755;59.316;18.092;2022-12-16T11:37:04;12.17;;;6.67;;
7426;SDS011;3755;59.316;18.092;2022-12-16T11:39:49;11.40;;;5.90;;
7426;SDS011;3755;59.316;18.092;2022-12-16T11:42:41;11.77;;;6.17;;
7426;SDS011;3755;59.316;18.092;2022-12-16T11:45:26;11.57;;;6.07;;
7426;SDS011;3755;59.316;18.092;2022-12-16T11:48:11;14.00;;;5.83;;
7426;SDS011;3755;59.316;18.092;2022-12-16T11:51:19;13.20;;;5.93;;
7426;SDS011;3755;59.316;18.092;2022-12-16T11:54:07;11.37;;;6.03;;
7426;SDS011;3755;59.316;18.092;2022-12-16T11:57:16;7.40;;;4.43;;
7426;SDS011;3755;59.316;18.092;2022-12-16T12:00:05;11.90;;;4.03;;
7426;SDS011;3755;59.316;18.092;2022-12-16T12:02:57;11.43;;;4.07;;
7426;SDS011;3755;59.316;18.092;2022-12-16T12:05:46;7.23;;;3.90;;
7426;SDS011;3755;59.316;18.092;2022-12-16T12:24:06;62.13;;;6.33;;
7426;SDS011;3755;59.316;18.092;2022-12-16T12:27:08;6.30;;;3.73;;
7426;SDS011;3755;59.316;18.092;2022-12-16T12:30:02;5.93;;;3.57;;
7426;SDS011;3755;59.316;18.092;2022-12-16T12:33:12;8.63;;;4.13;;
7426;SDS011;3755;59.316;18.092;2022-12-16T12:43:09;6.37;;;3.30;;
7426;SDS011;3755;59.316;18.092;2022-12-16T12:46:08;5.33;;;3.27;;
7426;SDS011;3755;59.316;18.092;2022-12-16T12:49:00;5.67;;;4.07;;
7426;SDS011;3755;59.316;18.092;2022-12-16T12:51:57;6.17;;;3.40;;
7426;SDS011;3755;59.316;18.092;2022-12-16T12:54:49;3.03;;;1.87;;
7426;SDS011;3755;59.316;18.092;2022-12-16T13:00:58;2.10;;;1.43;;
7426;SDS011;3755;59.316;18.092;2022-12-16T13:03:46;1.20;;;1.10;;
7426;SDS011;3755;59.316;18.092;2022-12-16T13:06:34;3.77;;;2.63;;
7426;SDS011;3755;59.316;18.092;2022-12-16T13:09:29;7.20;;;4.50;;
7426;SDS011;3755;59.316;18.092;2022-12-16T13:12:29;6.13;;;4.20;;
7426;SDS011;3755;59.316;18.092;2022-12-16T13:15:18;8.83;;;4.50;;
7426;SDS011;3755;59.316;18.092;2022-12-16T13:24:47;7.27;;;4.03;;
7426;SDS011;3755;59.316;18.092;2022-12-16T13:27:48;8.03;;;3.87;;
7426;SDS011;3755;59.316;18.092;2022-12-16T13:30:38;8.47;;;4.97;;
7426;SDS011;3755;59.316;18.092;2022-12-16T13:33:24;7.13;;;4.03;;
7426;SDS011;3755;59.316;18.092;2022-12-16T13:36:11;6.27;;;4.30;;
7426;SDS011;3755;59.316;18.092;2022-12-16T13:39:03;5.40;;;4.13;;
7426;SDS011;3755;59.316;18.092;2022-12-16T13:42:03;8.90;;;3.77;;
7426;SDS011;3755;59.316;18.092;2022-12-16T13:44:53;3.10;;;2.37;;
7426;SDS011;3755;59.316;18.092;2022-12-16T13:47:59;7.23;;;4.13;;
7426;SDS011;3755;59.316;18.092;2022-12-16T13:50:49;7.57;;;2.60;;
7426;SDS011;3755;59.316;18.092;2022-12-16T13:53:39;4.97;;;3.70;;
7426;SDS011;3755;59.316;18.092;2022-12-16T13:56:47;6.20;;;3.97;;
7426;SDS011;3755;59.316;18.092;2022-12-16T13:59:46;7.63;;;4.07;;
7426;SDS011;3755;59.316;18.092;2022-12-16T14:02:35;4.47;;;3.40;;
7426;SDS011;3755;59.316;18.092;2022-12-16T14:05:35;9.37;;;4.00;;
7426;SDS011;3755;59.316;18.092;2022-12-16T14:08:25;6.53;;;3.10;;
7426;SDS011;3755;59.316;18.092;2022-12-16T14:11:16;4.37;;;2.53;;
7426;SDS011;3755;59.316;18.092;2022-12-16T14:24:01;4.67;;;2.33;;
7426;SDS011;3755;59.316;18.092;2022-12-16T14:27:14;5.40;;;2.47;;
7426;SDS011;3755;59.316;18.092;2022-12-16T14:30:02;7.27;;;3.67;;
7426;SDS011;3755;59.316;18.092;2022-12-16T14:33:00;5.07;;;2.33;;
7426;SDS011;3755;59.316;18.092;2022-12-16T14:39:19;9.93;;;5.27;;
7426;SDS011;3755;59.316;18.092;2022-12-16T14:45:22;16.47;;;6.63;;
7426;SDS011;3755;59.316;18.092;2022-12-16T14:48:30;10.23;;;5.13;;
7426;SDS011;3755;59.316;18.092;2022-12-16T14:51:26;12.27;;;5.73;;
7426;SDS011;3755;59.316;18.092;2022-12-16T14:54:47;9.97;;;5.53;;
7426;SDS011;3755;59.316;18.092;2022-12-16T14:57:34;10.03;;;5.33;;
7426;SDS011;3755;59.316;18.092;2022-12-16T15:00:50;11.70;;;5.43;;
7426;SDS011;3755;59.316;18.092;2022-12-16T15:03:41;11.63;;;5.67;;
7426;SDS011;3755;59.316;18.092;2022-12-16T15:06:36;10.57;;;5.23;;
7426;SDS011;3755;59.316;18.092;2022-12-16T15:09:26;7.77;;;4.87;;
7426;SDS011;3755;59.316;18.092;2022-12-16T15:15:29;8.33;;;4.37;;
7426;SDS011;3755;59.316;18.092;2022-12-16T15:18:19;11.33;;;5.27;;
7426;SDS011;3755;59.316;18.092;2022-12-16T15:24:18;12.67;;;6.37;;
7426;SDS011;3755;59.316;18.092;2022-12-16T15:27:13;11.73;;;6.27;;
7426;SDS011;3755;59.316;18.092;2022-12-16T15:36:49;10.80;;;5.40;;
7426;SDS011;3755;59.316;18.092;2022-12-16T15:39:36;10.77;;;6.33;;
7426;SDS011;3755;59.316;18.092;2022-12-16T15:42:26;10.50;;;5.53;;
7426;SDS011;3755;59.316;18.092;2022-12-16T15:45:16;11.43;;;5.60;;
7426;SDS011;3755;59.316;18.092;2022-12-16T15:48:10;13.00;;;5.50;;
7426;SDS011;3755;59.316;18.092;2022-12-16T15:51:18;11.13;;;5.90;;
7426;SDS011;3755;59.316;18.092;2022-12-16T15:54:16;8.83;;;4.57;;
7426;SDS011;3755;59.316;18.092;2022-12-16T16:00:17;9.60;;;5.37;;
7426;SDS011;3755;59.316;18.092;2022-12-16T16:03:20;9.93;;;5.53;;
7426;SDS011;3755;59.316;18.092;2022-12-16T16:06:13;12.60;;;6.40;;
7426;SDS011;3755;59.316;18.092;2022-12-16T16:09:00;15.97;;;7.37;;
7426;SDS011;3755;59.316;18.092;2022-12-16T16:11:46;12.13;;;7.70;;
7426;SDS011;3755;59.316;18.092;2022-12-16T16:14:43;18.93;;;8.93;;
7426;SDS011;3755;59.316;18.092;2022-12-16T16:17:28;14.40;;;7.83;;
7426;SDS011;3755;59.316;18.092;2022-12-16T16:20:14;16.40;;;9.37;;
7426;SDS011;3755;59.316;18.092;2022-12-16T16:23:03;19.17;;;8.83;;
7426;SDS011;3755;59.316;18.092;2022-12-16T16:25:48;23.67;;;10.20;;
7426;SDS011;3755;59.316;18.092;2022-12-16T16:28:43;16.87;;;9.17;;
7426;SDS011;3755;59.316;18.092;2022-12-16T16:31:36;18.90;;;8.70;;
7426;SDS011;3755;59.316;18.092;2022-12-16T16:34:21;19.83;;;9.00;;
7426;SDS011;3755;59.316;18.092;2022-12-16T16:37:07;15.00;;;8.73;;
7426;SDS011;3755;59.316;18.092;2022-12-16T16:39:56;18.50;;;9.20;;
7426;SDS011;3755;59.316;18.092;2022-12-16T16:42:41;17.73;;;8.97;;
7426;SDS011;3755;59.316;18.092;2022-12-16T16:51:46;25.03;;;10.73;;
7426;SDS011;3755;59.316;18.092;2022-12-16T16:54:37;20.83;;;10.37;;
7426;SDS011;3755;59.316;18.092;2022-12-16T16:57:23;17.97;;;7.50;;
7426;SDS011;3755;59.316;18.092;2022-12-16T17:00:16;19.30;;;9.93;;
7426;SDS011;3755;59.316;18.092;2022-12-16T17:03:01;19.43;;;9.23;;
7426;SDS011;3755;59.316;18.092;2022-12-16T17:05:47;17.40;;;9.57;;
7426;SDS011;3755;59.316;18.092;2022-12-16T17:08:32;12.97;;;7.83;;
7426;SDS011;3755;59.316;18.092;2022-12-16T17:11:17;17.93;;;7.67;;
7426;SDS011;3755;59.316;18.092;2022-12-16T17:14:03;15.33;;;8.27;;
7426;SDS011;3755;59.316;18.092;2022-12-16T17:16:48;15.83;;;7.93;;
7426;SDS011;3755;59.316;18.092;2022-12-16T17:19:33;17.63;;;9.27;;
7426;SDS011;3755;59.316;18.092;2022-12-16T17:25:26;16.53;;;7.77;;
7426;SDS011;3755;59.316;18.092;2022-12-16T17:28:11;20.10;;;9.30;;
7426;SDS011;3755;59.316;18.092;2022-12-16T17:30:57;15.97;;;9.30;;
7426;SDS011;3755;59.316;18.092;2022-12-16T17:33:44;17.53;;;7.47;;
7426;SDS011;3755;59.316;18.092;2022-12-16T17:36:36;25.10;;;9.13;;
7426;SDS011;3755;59.316;18.092;2022-12-16T17:42:51;18.10;;;8.57;;
7426;SDS011;3755;59.316;18.092;2022-12-16T17:45:36;26.40;;;9.73;;
7426;SDS011;3755;59.316;18.092;2022-12-16T17:48:25;32.13;;;11.90;;
7426;SDS011;3755;59.316;18.092;2022-12-16T17:54:36;25.43;;;10.87;;
7426;SDS011;3755;59.316;18.092;2022-12-16T17:57:47;49.77;;;14.93;;
7426;SDS011;3755;59.316;18.092;2022-12-16T18:00:28;26.50;;;10.90;;
7426;SDS011;3755;59.316;18.092;2022-12-16T18:03:16;19.40;;;9.67;;
7426;SDS011;3755;59.316;18.092;2022-12-16T18:06:02;21.80;;;8.33;;
7426;SDS011;3755;59.316;18.092;2022-12-16T18:08:59;20.70;;;10.03;;
7426;SDS011;3755;59.316;18.092;2022-12-16T18:11:44;27.00;;;10.77;;
7426;SDS011;3755;59.316;18.092;2022-12-16T18:17:31;22.40;;;9.77;;
7426;SDS011;3755;59.316;18.092;2022-12-16T18:23:21;21.63;;;10.53;;
7426;SDS011;3755;59.316;18.092;2022-12-16T18:26:25;23.27;;;11.80;;
7426;SDS011;3755;59.316;18.092;2022-12-16T18:29:22;24.33;;;10.70;;
7426;SDS011;3755;59.316;18.092;2022-12-16T20:31:47;16.67;;;7.37;;
7426;SDS011;3755;59.316;18.092;2022-12-16T20:34:35;20.70;;;9.23;;
7426;SDS011;3755;59.316;18.092;2022-12-16T20:37:21;15.27;;;7.63;;
7426;SDS011;3755;59.316;18.092;2022-12-16T20:40:21;15.77;;;8.60;;
7426;SDS011;3755;59.316;18.092;2022-12-16T20:43:07;15.93;;;6.57;;
7426;SDS011;3755;59.316;18.092;2022-12-16T22:06:52;11.90;;;6.33;;
7426;SDS011;3755;59.316;18.092;2022-12-16T22:09:37;7.77;;;5.17;;
7426;SDS011;3755;59.316;18.092;2022-12-16T22:12:22;9.77;;;5.37;;
7426;SDS011;3755;59.316;18.092;2022-12-16T22:15:07;11.63;;;5.80;;
7426;SDS011;3755;59.316;18.092;2022-12-16T22:17:52;8.33;;;3.93;;
7426;SDS011;3755;59.316;18.092;2022-12-16T22:20:37;10.70;;;5.10;;
7426;SDS011;3755;59.316;18.092;2022-12-16T22:26:28;14.03;;;7.17;;
7426;SDS011;3755;59.316;18.092;2022-12-16T22:29:13;14.17;;;6.53;;
7426;SDS011;3755;59.316;18.092;2022-12-16T22:31:58;13.73;;;5.90;;
7426;SDS011;3755;59.316;18.092;2022-12-16T22:34:47;9.60;;;3.93;;
7426;SDS011;3755;59.316;18.092;2022-12-16T22:37:32;8.77;;;5.27;;
7426;SDS011;3755;59.316;18.092;2022-12-16T22:40:19;9.90;;;5.07;;
7426;SDS011;3755;59.316;18.092;2022-12-16T22:43:04;8.30;;;4.77;;
7426;SDS011;3755;59.316;18.092;2022-12-16T22:45:56;7.10;;;3.37;;
7426;SDS011;3755;59.316;18.092;2022-12-16T22:48:42;3.87;;;3.47;;
7426;SDS011;3755;59.316;18.092;2022-12-16T22:51:28;8.73;;;4.13;;
7426;SDS011;3755;59.316;18.092;2022-12-16T22:54:13;10.93;;;5.67;;
7426;SDS011;3755;59.316;18.092;2022-12-16T22:57:00;9.27;;;4.37;;
7426;SDS011;3755;59.316;18.092;2022-12-16T22:59:45;6.77;;;3.67;;
7426;SDS011;3755;59.316;18.092;2022-12-16T23:02:30;9.57;;;5.90;;
7426;SDS011;3755;59.316;18.092;2022-12-16T23:05:14;10.27;;;5.27;;
7426;SDS011;3755;59.316;18.092;2022-12-16T23:08:00;9.70;;;5.37;;